sensor_id;sensor_type;location;lat;lon;timestamp;temperature;humidity
17423;DHT22;8829;47.932;7.810;2022-07-05T00:01:09;18.70;99.90
17423;DHT22;8829;47.932;7.810;2022-07-05T00:03:36;18.80;99.90
17423;DHT22;8829;47.932;7.810;2022-07-05T00:06:04;18.90;99.90
17423;DHT22;8829;47.932;7.810;2022-07-05T00:08:31;18.90;99.90
17423;DHT22;8829;47.932;7.810;2022-07-05T00:10:58;19.00;99.90
17423;DHT22;8829;47.932;7.810;2022-07-05T00:13:25;19.00;99.90
17423;DHT22;8829;47.932;7.810;2022-07-05T00:15:52;19.00;99.90
17423;DHT22;8829;47.932;7.810;2022-07-05T00:18:18;19.00;99.90
17423;DHT22;8829;47.932;7.810;2022-07-05T00:20:45;19.10;99.90
17423;DHT22;8829;47.932;7.810;2022-07-05T00:23:13;19.10;99.90
17423;DHT22;8829;47.932;7.810;2022-07-05T00:25:40;19.20;99.90
17423;DHT22;8829;47.932;7.810;2022-07-05T00:28:07;19.10;99.90
17423;DHT22;8829;47.932;7.810;2022-07-05T00:30:34;19.00;99.90
17423;DHT22;8829;47.932;7.810;2022-07-05T00:33:01;19.00;99.90
17423;DHT22;8829;47.932;7.810;2022-07-05T00:35:28;18.90;99.90
17423;DHT22;8829;47.932;7.810;2022-07-05T00:37:55;18.80;99.90
17423;DHT22;8829;47.932;7.810;2022-07-05T00:40:23;18.90;99.90
17423;DHT22;8829;47.932;7.810;2022-07-05T00:42:50;18.80;99.90
17423;DHT22;8829;47.932;7.810;2022-07-05T00:45:17;18.80;99.90
17423;DHT22;8829;47.932;7.810;2022-07-05T00:47:44;18.80;99.90
17423;DHT22;8829;47.932;7.810;2022-07-05T00:50:11;18.70;99.90
17423;DHT22;8829;47.932;7.810;2022-07-05T00:52:37;18.70;99.90
17423;DHT22;8829;47.932;7.810;2022-07-05T00:55:05;18.70;99.90
17423;DHT22;8829;47.932;7.810;2022-07-05T00:57:34;18.70;99.90
17423;DHT22;8829;47.932;7.810;2022-07-05T01:00:02;18.90;99.90
17423;DHT22;8829;47.932;7.810;2022-07-05T01:02:29;18.90;99.90
17423;DHT22;8829;47.932;7.810;2022-07-05T01:04:56;18.90;99.90
17423;DHT22;8829;47.932;7.810;2022-07-05T01:07:23;18.90;99.90
17423;DHT22;8829;47.932;7.810;2022-07-05T01:09:51;18.90;99.90
17423;DHT22;8829;47.932;7.810;2022-07-05T01:12:18;19.00;99.90
17423;DHT22;8829;47.932;7.810;2022-07-05T01:14:47;19.00;99.90
17423;DHT22;8829;47.932;7.810;2022-07-05T01:17:14;19.00;99.90
17423;DHT22;8829;47.932;7.810;2022-07-05T01:19:42;19.00;99.90
17423;DHT22;8829;47.932;7.810;2022-07-05T01:22:15;19.00;99.90
17423;DHT22;8829;47.932;7.810;2022-07-05T01:24:44;19.00;99.90
17423;DHT22;8829;47.932;7.810;2022-07-05T01:27:11;19.00;99.90
17423;DHT22;8829;47.932;7.810;2022-07-05T01:29:38;19.00;99.90
17423;DHT22;8829;47.932;7.810;2022-07-05T01:32:06;19.00;99.90
17423;DHT22;8829;47.932;7.810;2022-07-05T01:34:36;19.00;99.90
17423;DHT22;8829;47.932;7.810;2022-07-05T01:37:04;19.00;99.90
17423;DHT22;8829;47.932;7.810;2022-07-05T01:39:31;18.90;99.90
17423;DHT22;8829;47.932;7.810;2022-07-05T01:42:00;18.90;99.90
17423;DHT22;8829;47.932;7.810;2022-07-05T01:44:27;18.80;99.90
17423;DHT22;8829;47.932;7.810;2022-07-05T01:47:00;18.80;99.90
17423;DHT22;8829;47.932;7.810;2022-07-05T01:49:32;18.80;99.90
17423;DHT22;8829;47.932;7.810;2022-07-05T01:52:04;18.90;99.90
17423;DHT22;8829;47.932;7.810;2022-07-05T01:54:33;18.80;99.90
17423;DHT22;8829;47.932;7.810;2022-07-05T01:57:03;18.80;99.90
17423;DHT22;8829;47.932;7.810;2022-07-05T01:59:31;18.80;99.90
17423;DHT22;8829;47.932;7.810;2022-07-05T02:01:58;18.80;99.90
17423;DHT22;8829;47.932;7.810;2022-07-05T02:04:25;18.80;99.90
17423;DHT22;8829;47.932;7.810;2022-07-05T02:06:52;18.60;99.90
17423;DHT22;8829;47.932;7.810;2022-07-05T02:09:19;18.50;99.90
17423;DHT22;8829;47.932;7.810;2022-07-05T02:11:46;18.50;99.90
17423;DHT22;8829;47.932;7.810;2022-07-05T02:14:14;18.50;99.90
17423;DHT22;8829;47.932;7.810;2022-07-05T02:16:41;18.40;99.90
17423;DHT22;8829;47.932;7.810;2022-07-05T02:19:08;18.30;99.90
17423;DHT22;8829;47.932;7.810;2022-07-05T02:21:35;18.20;99.90
17423;DHT22;8829;47.932;7.810;2022-07-05T02:24:02;18.10;99.90
17423;DHT22;8829;47.932;7.810;2022-07-05T02:26:29;18.00;99.90
17423;DHT22;8829;47.932;7.810;2022-07-05T02:28:55;17.80;99.90
17423;DHT22;8829;47.932;7.810;2022-07-05T02:31:24;17.70;99.90
17423;DHT22;8829;47.932;7.810;2022-07-05T02:33:51;17.60;99.90
17423;DHT22;8829;47.932;7.810;2022-07-05T02:36:18;17.50;99.90
17423;DHT22;8829;47.932;7.810;2022-07-05T02:38:45;17.50;99.90
17423;DHT22;8829;47.932;7.810;2022-07-05T02:41:12;17.40;99.90
17423;DHT22;8829;47.932;7.810;2022-07-05T02:43:40;17.40;99.90
17423;DHT22;8829;47.932;7.810;2022-07-05T02:46:08;17.40;99.90
17423;DHT22;8829;47.932;7.810;2022-07-05T02:48:37;17.40;99.90
17423;DHT22;8829;47.932;7.810;2022-07-05T02:51:05;17.40;99.90
17423;DHT22;8829;47.932;7.810;2022-07-05T02:53:32;17.40;99.90
17423;DHT22;8829;47.932;7.810;2022-07-05T02:55:59;17.50;99.90
17423;DHT22;8829;47.932;7.810;2022-07-05T02:58:26;17.50;99.90
17423;DHT22;8829;47.932;7.810;2022-07-05T03:00:53;17.40;99.90
17423;DHT22;8829;47.932;7.810;2022-07-05T03:03:20;17.40;99.90
17423;DHT22;8829;47.932;7.810;2022-07-05T03:05:48;17.30;99.90
17423;DHT22;8829;47.932;7.810;2022-07-05T03:08:15;17.30;99.90
17423;DHT22;8829;47.932;7.810;2022-07-05T03:10:42;17.20;99.90
17423;DHT22;8829;47.932;7.810;2022-07-05T03:13:09;17.20;99.90
17423;DHT22;8829;47.932;7.810;2022-07-05T03:15:36;17.20;99.90
17423;DHT22;8829;47.932;7.810;2022-07-05T03:18:03;17.20;99.90
17423;DHT22;8829;47.932;7.810;2022-07-05T03:20:30;17.00;99.90
17423;DHT22;8829;47.932;7.810;2022-07-05T03:22:58;16.90;99.90
17423;DHT22;8829;47.932;7.810;2022-07-05T03:25:25;16.80;99.90
17423;DHT22;8829;47.932;7.810;2022-07-05T03:27:52;16.60;99.90
17423;DHT22;8829;47.932;7.810;2022-07-05T03:30:19;16.50;99.90
17423;DHT22;8829;47.932;7.810;2022-07-05T03:32:45;16.30;99.90
17423;DHT22;8829;47.932;7.810;2022-07-05T03:35:12;16.30;99.90
17423;DHT22;8829;47.932;7.810;2022-07-05T03:37:39;16.30;99.90
17423;DHT22;8829;47.932;7.810;2022-07-05T03:40:08;16.20;99.90
17423;DHT22;8829;47.932;7.810;2022-07-05T03:42:35;16.30;99.90
17423;DHT22;8829;47.932;7.810;2022-07-05T03:45:02;16.40;99.90
17423;DHT22;8829;47.932;7.810;2022-07-05T03:47:29;16.40;99.90
17423;DHT22;8829;47.932;7.810;2022-07-05T03:49:56;16.40;99.90
17423;DHT22;8829;47.932;7.810;2022-07-05T03:52:23;16.40;99.90
17423;DHT22;8829;47.932;7.810;2022-07-05T03:54:50;16.40;99.90
17423;DHT22;8829;47.932;7.810;2022-07-05T03:57:18;16.40;99.90
17423;DHT22;8829;47.932;7.810;2022-07-05T03:59:46;16.40;99.90
17423;DHT22;8829;47.932;7.810;2022-07-05T04:02:13;16.40;99.90
17423;DHT22;8829;47.932;7.810;2022-07-05T04:04:39;16.40;99.90
17423;DHT22;8829;47.932;7.810;2022-07-05T04:07:06;16.40;99.90
17423;DHT22;8829;47.932;7.810;2022-07-05T04:09:33;16.40;99.90
17423;DHT22;8829;47.932;7.810;2022-07-05T04:12:00;16.40;99.90
17423;DHT22;8829;47.932;7.810;2022-07-05T04:14:29;16.40;99.90
17423;DHT22;8829;47.932;7.810;2022-07-05T04:16:56;16.40;99.90
17423;DHT22;8829;47.932;7.810;2022-07-05T04:19:22;16.50;99.90
17423;DHT22;8829;47.932;7.810;2022-07-05T04:21:49;16.60;99.90
17423;DHT22;8829;47.932;7.810;2022-07-05T04:24:16;16.70;99.90
17423;DHT22;8829;47.932;7.810;2022-07-05T04:26:43;16.70;99.90
17423;DHT22;8829;47.932;7.810;2022-07-05T04:29:10;16.70;99.90
17423;DHT22;8829;47.932;7.810;2022-07-05T04:31:38;16.70;99.90
17423;DHT22;8829;47.932;7.810;2022-07-05T04:34:05;16.60;99.90
17423;DHT22;8829;47.932;7.810;2022-07-05T04:36:32;16.50;99.90
17423;DHT22;8829;47.932;7.810;2022-07-05T04:38:59;16.40;99.90
17423;DHT22;8829;47.932;7.810;2022-07-05T04:41:26;16.30;99.90
17423;DHT22;8829;47.932;7.810;2022-07-05T04:43:52;16.20;99.90
17423;DHT22;8829;47.932;7.810;2022-07-05T04:46:19;16.20;99.90
17423;DHT22;8829;47.932;7.810;2022-07-05T04:48:47;16.10;99.90
17423;DHT22;8829;47.932;7.810;2022-07-05T04:51:14;16.20;99.90
17423;DHT22;8829;47.932;7.810;2022-07-05T04:53:41;16.20;99.90
17423;DHT22;8829;47.932;7.810;2022-07-05T04:56:08;16.30;99.90
17423;DHT22;8829;47.932;7.810;2022-07-05T04:58:35;16.40;99.90
17423;DHT22;8829;47.932;7.810;2022-07-05T05:01:02;16.50;99.90
17423;DHT22;8829;47.932;7.810;2022-07-05T05:03:29;16.50;99.90
17423;DHT22;8829;47.932;7.810;2022-07-05T05:05:57;16.50;99.90
17423;DHT22;8829;47.932;7.810;2022-07-05T05:08:25;16.50;99.90
17423;DHT22;8829;47.932;7.810;2022-07-05T05:10:52;16.50;99.90
17423;DHT22;8829;47.932;7.810;2022-07-05T05:13:19;16.40;99.90
17423;DHT22;8829;47.932;7.810;2022-07-05T05:15:46;16.40;99.90
17423;DHT22;8829;47.932;7.810;2022-07-05T05:18:12;16.40;99.90
17423;DHT22;8829;47.932;7.810;2022-07-05T05:20:40;16.30;99.90
17423;DHT22;8829;47.932;7.810;2022-07-05T05:23:09;16.40;99.90
17423;DHT22;8829;47.932;7.810;2022-07-05T05:25:35;16.50;99.90
17423;DHT22;8829;47.932;7.810;2022-07-05T05:28:02;16.80;99.90
17423;DHT22;8829;47.932;7.810;2022-07-05T05:30:29;17.10;99.90
17423;DHT22;8829;47.932;7.810;2022-07-05T05:32:56;17.40;99.90
17423;DHT22;8829;47.932;7.810;2022-07-05T05:35:23;17.80;99.90
17423;DHT22;8829;47.932;7.810;2022-07-05T05:37:51;18.20;99.90
17423;DHT22;8829;47.932;7.810;2022-07-05T05:40:19;18.50;99.90
17423;DHT22;8829;47.932;7.810;2022-07-05T05:42:47;18.80;99.90
17423;DHT22;8829;47.932;7.810;2022-07-05T05:45:14;19.00;99.90
17423;DHT22;8829;47.932;7.810;2022-07-05T05:47:45;19.20;99.90
17423;DHT22;8829;47.932;7.810;2022-07-05T05:50:12;19.50;99.90
17423;DHT22;8829;47.932;7.810;2022-07-05T05:52:39;19.70;99.90
17423;DHT22;8829;47.932;7.810;2022-07-05T05:55:07;19.80;99.90
17423;DHT22;8829;47.932;7.810;2022-07-05T05:57:35;20.00;99.90
17423;DHT22;8829;47.932;7.810;2022-07-05T06:00:04;20.10;99.90
17423;DHT22;8829;47.932;7.810;2022-07-05T06:02:31;20.20;99.90
17423;DHT22;8829;47.932;7.810;2022-07-05T06:04:58;20.40;99.90
17423;DHT22;8829;47.932;7.810;2022-07-05T06:07:25;20.70;99.90
17423;DHT22;8829;47.932;7.810;2022-07-05T06:09:51;20.80;99.90
17423;DHT22;8829;47.932;7.810;2022-07-05T06:12:18;21.00;99.90
17423;DHT22;8829;47.932;7.810;2022-07-05T06:14:46;21.20;99.90
17423;DHT22;8829;47.932;7.810;2022-07-05T06:17:13;21.50;99.90
17423;DHT22;8829;47.932;7.810;2022-07-05T06:19:40;21.70;99.90
17423;DHT22;8829;47.932;7.810;2022-07-05T06:22:07;22.00;99.90
17423;DHT22;8829;47.932;7.810;2022-07-05T06:24:34;22.30;99.90
17423;DHT22;8829;47.932;7.810;2022-07-05T06:27:01;22.50;99.90
17423;DHT22;8829;47.932;7.810;2022-07-05T06:29:27;22.90;99.90
17423;DHT22;8829;47.932;7.810;2022-07-05T06:31:55;23.30;99.90
17423;DHT22;8829;47.932;7.810;2022-07-05T06:34:22;23.60;99.90
17423;DHT22;8829;47.932;7.810;2022-07-05T06:36:49;23.80;99.90
17423;DHT22;8829;47.932;7.810;2022-07-05T06:39:16;24.10;99.90
17423;DHT22;8829;47.932;7.810;2022-07-05T06:41:43;24.40;99.90
17423;DHT22;8829;47.932;7.810;2022-07-05T06:44:10;24.60;99.90
17423;DHT22;8829;47.932;7.810;2022-07-05T06:46:36;24.90;99.90
17423;DHT22;8829;47.932;7.810;2022-07-05T06:49:05;25.00;99.90
17423;DHT22;8829;47.932;7.810;2022-07-05T06:51:31;25.30;99.50
17423;DHT22;8829;47.932;7.810;2022-07-05T06:53:58;25.40;99.10
17423;DHT22;8829;47.932;7.810;2022-07-05T06:56:25;25.60;99.00
17423;DHT22;8829;47.932;7.810;2022-07-05T06:58:52;26.00;98.60
17423;DHT22;8829;47.932;7.810;2022-07-05T07:01:19;26.00;95.50
17423;DHT22;8829;47.932;7.810;2022-07-05T07:03:45;26.00;95.90
17423;DHT22;8829;47.932;7.810;2022-07-05T07:06:14;26.20;95.50
17423;DHT22;8829;47.932;7.810;2022-07-05T07:08:41;26.20;94.40
17423;DHT22;8829;47.932;7.810;2022-07-05T07:11:37;26.30;93.80
17423;DHT22;8829;47.932;7.810;2022-07-05T07:14:04;26.70;93.30
17423;DHT22;8829;47.932;7.810;2022-07-05T07:16:31;26.80;93.00
17423;DHT22;8829;47.932;7.810;2022-07-05T07:18:58;26.90;92.30
17423;DHT22;8829;47.932;7.810;2022-07-05T07:21:26;26.80;93.80
17423;DHT22;8829;47.932;7.810;2022-07-05T07:23:52;26.90;93.60
17423;DHT22;8829;47.932;7.810;2022-07-05T07:26:19;26.90;93.40
17423;DHT22;8829;47.932;7.810;2022-07-05T07:28:46;26.60;94.40
17423;DHT22;8829;47.932;7.810;2022-07-05T07:31:13;26.50;94.40
17423;DHT22;8829;47.932;7.810;2022-07-05T07:33:40;26.70;94.60
17423;DHT22;8829;47.932;7.810;2022-07-05T07:36:07;27.00;94.40
17423;DHT22;8829;47.932;7.810;2022-07-05T07:38:35;27.30;93.30
17423;DHT22;8829;47.932;7.810;2022-07-05T07:41:02;26.80;93.10
17423;DHT22;8829;47.932;7.810;2022-07-05T07:43:29;27.00;92.60
17423;DHT22;8829;47.932;7.810;2022-07-05T07:45:56;27.20;92.90
17423;DHT22;8829;47.932;7.810;2022-07-05T07:48:23;27.50;91.60
17423;DHT22;8829;47.932;7.810;2022-07-05T07:50:50;27.70;91.00
17423;DHT22;8829;47.932;7.810;2022-07-05T07:53:17;27.90;91.50
17423;DHT22;8829;47.932;7.810;2022-07-05T07:55:45;28.20;91.70
17423;DHT22;8829;47.932;7.810;2022-07-05T07:58:12;28.30;91.30
17423;DHT22;8829;47.932;7.810;2022-07-05T08:00:39;28.40;91.10
17423;DHT22;8829;47.932;7.810;2022-07-05T08:03:05;28.60;90.90
17423;DHT22;8829;47.932;7.810;2022-07-05T08:05:32;28.90;90.70
17423;DHT22;8829;47.932;7.810;2022-07-05T08:07:59;29.00;91.10
17423;DHT22;8829;47.932;7.810;2022-07-05T08:10:26;29.00;90.90
17423;DHT22;8829;47.932;7.810;2022-07-05T08:12:55;29.10;90.90
17423;DHT22;8829;47.932;7.810;2022-07-05T08:15:21;29.30;90.80
17423;DHT22;8829;47.932;7.810;2022-07-05T08:17:48;29.40;90.10
17423;DHT22;8829;47.932;7.810;2022-07-05T08:20:29;29.50;90.00
17423;DHT22;8829;47.932;7.810;2022-07-05T08:23:13;29.60;87.60
17423;DHT22;8829;47.932;7.810;2022-07-05T08:25:40;29.60;86.80
17423;DHT22;8829;47.932;7.810;2022-07-05T08:28:08;29.60;88.00
17423;DHT22;8829;47.932;7.810;2022-07-05T08:30:35;29.80;88.60
17423;DHT22;8829;47.932;7.810;2022-07-05T08:33:02;30.20;87.00
17423;DHT22;8829;47.932;7.810;2022-07-05T08:35:28;30.40;85.80
17423;DHT22;8829;47.932;7.810;2022-07-05T08:37:55;30.50;85.00
17423;DHT22;8829;47.932;7.810;2022-07-05T08:40:25;30.60;85.60
17423;DHT22;8829;47.932;7.810;2022-07-05T08:42:55;30.50;84.40
17423;DHT22;8829;47.932;7.810;2022-07-05T08:45:25;30.30;86.30
17423;DHT22;8829;47.932;7.810;2022-07-05T08:47:53;30.20;83.50
17423;DHT22;8829;47.932;7.810;2022-07-05T08:50:22;30.00;84.70
17423;DHT22;8829;47.932;7.810;2022-07-05T08:52:50;30.40;84.60
17423;DHT22;8829;47.932;7.810;2022-07-05T08:55:17;30.90;81.40
17423;DHT22;8829;47.932;7.810;2022-07-05T08:57:44;30.90;81.30
17423;DHT22;8829;47.932;7.810;2022-07-05T09:00:12;30.90;82.00
17423;DHT22;8829;47.932;7.810;2022-07-05T09:02:41;31.10;80.50
17423;DHT22;8829;47.932;7.810;2022-07-05T09:05:10;30.90;80.50
17423;DHT22;8829;47.932;7.810;2022-07-05T09:07:44;31.40;78.30
17423;DHT22;8829;47.932;7.810;2022-07-05T09:10:14;31.20;80.50
17423;DHT22;8829;47.932;7.810;2022-07-05T09:12:42;31.00;80.60
17423;DHT22;8829;47.932;7.810;2022-07-05T09:15:10;31.00;80.40
17423;DHT22;8829;47.932;7.810;2022-07-05T09:17:43;31.10;81.50
17423;DHT22;8829;47.932;7.810;2022-07-05T09:20:11;31.40;79.20
17423;DHT22;8829;47.932;7.810;2022-07-05T09:22:42;31.80;79.00
17423;DHT22;8829;47.932;7.810;2022-07-05T09:25:17;32.10;77.70
17423;DHT22;8829;47.932;7.810;2022-07-05T09:27:51;32.00;77.70
17423;DHT22;8829;47.932;7.810;2022-07-05T09:30:28;31.20;79.10
17423;DHT22;8829;47.932;7.810;2022-07-05T09:33:08;31.10;78.80
17423;DHT22;8829;47.932;7.810;2022-07-05T09:35:36;30.70;80.90
17423;DHT22;8829;47.932;7.810;2022-07-05T09:38:03;30.70;82.20
17423;DHT22;8829;47.932;7.810;2022-07-05T09:40:30;29.90;81.70
17423;DHT22;8829;47.932;7.810;2022-07-05T09:43:13;28.90;84.00
17423;DHT22;8829;47.932;7.810;2022-07-05T09:45:40;28.40;84.70
17423;DHT22;8829;47.932;7.810;2022-07-05T09:48:17;27.70;86.60
17423;DHT22;8829;47.932;7.810;2022-07-05T09:50:44;26.90;88.10
17423;DHT22;8829;47.932;7.810;2022-07-05T09:53:11;26.40;89.20
17423;DHT22;8829;47.932;7.810;2022-07-05T09:55:38;26.20;88.90
17423;DHT22;8829;47.932;7.810;2022-07-05T09:58:06;26.00;89.80
17423;DHT22;8829;47.932;7.810;2022-07-05T10:00:33;25.80;90.80
17423;DHT22;8829;47.932;7.810;2022-07-05T10:02:59;25.80;91.70
17423;DHT22;8829;47.932;7.810;2022-07-05T10:05:30;25.70;90.70
17423;DHT22;8829;47.932;7.810;2022-07-05T10:07:58;25.70;91.20
17423;DHT22;8829;47.932;7.810;2022-07-05T10:10:27;26.00;91.00
17423;DHT22;8829;47.932;7.810;2022-07-05T10:12:56;26.00;90.10
17423;DHT22;8829;47.932;7.810;2022-07-05T10:15:25;26.00;90.90
17423;DHT22;8829;47.932;7.810;2022-07-05T10:17:54;25.80;90.20
17423;DHT22;8829;47.932;7.810;2022-07-05T10:20:27;25.60;91.30
17423;DHT22;8829;47.932;7.810;2022-07-05T10:22:57;25.40;91.30
17423;DHT22;8829;47.932;7.810;2022-07-05T10:25:27;25.50;90.40
17423;DHT22;8829;47.932;7.810;2022-07-05T10:27:55;25.50;88.20
17423;DHT22;8829;47.932;7.810;2022-07-05T10:30:24;25.60;87.60
17423;DHT22;8829;47.932;7.810;2022-07-05T10:32:51;25.50;88.40
17423;DHT22;8829;47.932;7.810;2022-07-05T10:35:19;25.40;85.40
17423;DHT22;8829;47.932;7.810;2022-07-05T10:37:48;25.30;85.90
17423;DHT22;8829;47.932;7.810;2022-07-05T10:40:17;25.30;89.40
17423;DHT22;8829;47.932;7.810;2022-07-05T10:42:47;25.50;89.30
17423;DHT22;8829;47.932;7.810;2022-07-05T10:45:28;25.50;88.50
17423;DHT22;8829;47.932;7.810;2022-07-05T10:48:26;25.40;86.30
17423;DHT22;8829;47.932;7.810;2022-07-05T10:50:54;25.50;82.70
17423;DHT22;8829;47.932;7.810;2022-07-05T10:53:23;25.60;86.70
17423;DHT22;8829;47.932;7.810;2022-07-05T10:55:57;25.60;88.90
17423;DHT22;8829;47.932;7.810;2022-07-05T10:58:28;25.60;90.30
17423;DHT22;8829;47.932;7.810;2022-07-05T11:04:19;25.60;87.80
17423;DHT22;8829;47.932;7.810;2022-07-05T11:06:47;25.60;90.50
17423;DHT22;8829;47.932;7.810;2022-07-05T11:09:19;25.50;89.70
17423;DHT22;8829;47.932;7.810;2022-07-05T11:12:05;25.40;91.00
17423;DHT22;8829;47.932;7.810;2022-07-05T11:14:36;25.40;87.90
17423;DHT22;8829;47.932;7.810;2022-07-05T11:17:21;25.40;90.10
17423;DHT22;8829;47.932;7.810;2022-07-05T11:20:05;25.50;90.00
17423;DHT22;8829;47.932;7.810;2022-07-05T11:22:33;25.50;89.30
17423;DHT22;8829;47.932;7.810;2022-07-05T11:25:01;25.50;87.70
17423;DHT22;8829;47.932;7.810;2022-07-05T11:27:30;25.50;89.00
17423;DHT22;8829;47.932;7.810;2022-07-05T11:29:57;25.60;87.20
17423;DHT22;8829;47.932;7.810;2022-07-05T11:32:35;25.60;87.60
17423;DHT22;8829;47.932;7.810;2022-07-05T11:35:20;25.70;86.20
17423;DHT22;8829;47.932;7.810;2022-07-05T11:37:59;25.60;85.60
17423;DHT22;8829;47.932;7.810;2022-07-05T11:40:29;25.60;87.00
17423;DHT22;8829;47.932;7.810;2022-07-05T11:42:58;25.50;86.10
17423;DHT22;8829;47.932;7.810;2022-07-05T11:45:25;25.40;88.80
17423;DHT22;8829;47.932;7.810;2022-07-05T11:47:54;25.50;89.10
17423;DHT22;8829;47.932;7.810;2022-07-05T11:50:26;25.40;89.40
17423;DHT22;8829;47.932;7.810;2022-07-05T11:52:53;25.50;88.90
17423;DHT22;8829;47.932;7.810;2022-07-05T11:55:20;25.50;90.30
17423;DHT22;8829;47.932;7.810;2022-07-05T11:57:52;25.40;90.30
17423;DHT22;8829;47.932;7.810;2022-07-05T12:00:31;25.50;88.40
17423;DHT22;8829;47.932;7.810;2022-07-05T12:02:59;25.60;88.60
17423;DHT22;8829;47.932;7.810;2022-07-05T12:05:31;25.70;90.30
17423;DHT22;8829;47.932;7.810;2022-07-05T12:07:58;25.70;90.10
17423;DHT22;8829;47.932;7.810;2022-07-05T12:10:25;25.80;91.10
17423;DHT22;8829;47.932;7.810;2022-07-05T12:13:10;25.90;89.90
17423;DHT22;8829;47.932;7.810;2022-07-05T12:15:38;25.70;88.40
17423;DHT22;8829;47.932;7.810;2022-07-05T12:18:07;25.60;90.10
17423;DHT22;8829;47.932;7.810;2022-07-05T12:20:36;25.60;90.00
17423;DHT22;8829;47.932;7.810;2022-07-05T12:23:03;25.70;90.70
17423;DHT22;8829;47.932;7.810;2022-07-05T12:25:31;25.90;89.30
17423;DHT22;8829;47.932;7.810;2022-07-05T12:28:00;25.90;90.30
17423;DHT22;8829;47.932;7.810;2022-07-05T12:30:28;26.00;89.80
17423;DHT22;8829;47.932;7.810;2022-07-05T12:33:01;26.00;90.50
17423;DHT22;8829;47.932;7.810;2022-07-05T12:35:33;26.00;90.20
17423;DHT22;8829;47.932;7.810;2022-07-05T12:38:09;26.00;89.60
17423;DHT22;8829;47.932;7.810;2022-07-05T12:40:37;26.20;90.00
17423;DHT22;8829;47.932;7.810;2022-07-05T12:43:07;26.10;90.00
17423;DHT22;8829;47.932;7.810;2022-07-05T12:45:34;26.00;90.30
17423;DHT22;8829;47.932;7.810;2022-07-05T12:48:04;25.80;90.30
17423;DHT22;8829;47.932;7.810;2022-07-05T12:50:45;25.70;90.10
17423;DHT22;8829;47.932;7.810;2022-07-05T12:53:12;25.80;90.10
17423;DHT22;8829;47.932;7.810;2022-07-05T12:56:01;25.90;89.20
17423;DHT22;8829;47.932;7.810;2022-07-05T12:58:47;26.00;90.20
17423;DHT22;8829;47.932;7.810;2022-07-05T13:01:24;26.00;88.50
17423;DHT22;8829;47.932;7.810;2022-07-05T13:03:57;26.10;91.00
17423;DHT22;8829;47.932;7.810;2022-07-05T13:06:39;26.00;90.00
17423;DHT22;8829;47.932;7.810;2022-07-05T13:09:06;25.90;87.10
17423;DHT22;8829;47.932;7.810;2022-07-05T13:11:33;25.80;89.10
17423;DHT22;8829;47.932;7.810;2022-07-05T13:14:00;25.80;89.00
17423;DHT22;8829;47.932;7.810;2022-07-05T13:16:27;25.90;89.50
17423;DHT22;8829;47.932;7.810;2022-07-05T13:18:53;25.90;89.40
17423;DHT22;8829;47.932;7.810;2022-07-05T13:21:22;25.80;90.50
17423;DHT22;8829;47.932;7.810;2022-07-05T13:23:48;25.80;88.70
17423;DHT22;8829;47.932;7.810;2022-07-05T13:26:15;25.70;88.80
17423;DHT22;8829;47.932;7.810;2022-07-05T13:28:42;25.60;88.40
17423;DHT22;8829;47.932;7.810;2022-07-05T13:31:09;25.60;86.20
17423;DHT22;8829;47.932;7.810;2022-07-05T13:33:36;25.70;88.00
17423;DHT22;8829;47.932;7.810;2022-07-05T13:36:04;25.70;89.30
17423;DHT22;8829;47.932;7.810;2022-07-05T13:38:32;25.70;89.40
17423;DHT22;8829;47.932;7.810;2022-07-05T13:40:59;25.80;90.20
17423;DHT22;8829;47.932;7.810;2022-07-05T13:43:25;25.90;88.90
17423;DHT22;8829;47.932;7.810;2022-07-05T13:45:52;25.90;86.10
17423;DHT22;8829;47.932;7.810;2022-07-05T13:48:19;25.90;87.70
17423;DHT22;8829;47.932;7.810;2022-07-05T13:50:46;26.00;88.70
17423;DHT22;8829;47.932;7.810;2022-07-05T13:53:13;26.00;88.10
17423;DHT22;8829;47.932;7.810;2022-07-05T13:55:41;26.00;87.60
17423;DHT22;8829;47.932;7.810;2022-07-05T13:58:08;26.10;87.40
17423;DHT22;8829;47.932;7.810;2022-07-05T14:00:35;26.20;89.70
17423;DHT22;8829;47.932;7.810;2022-07-05T14:03:02;26.20;88.90
17423;DHT22;8829;47.932;7.810;2022-07-05T14:05:28;26.10;87.70
17423;DHT22;8829;47.932;7.810;2022-07-05T14:07:55;26.00;89.10
17423;DHT22;8829;47.932;7.810;2022-07-05T14:10:23;26.10;88.40
17423;DHT22;8829;47.932;7.810;2022-07-05T14:12:51;26.20;88.80
17423;DHT22;8829;47.932;7.810;2022-07-05T14:15:18;26.40;89.00
17423;DHT22;8829;47.932;7.810;2022-07-05T14:17:45;26.50;87.60
17423;DHT22;8829;47.932;7.810;2022-07-05T14:20:12;26.50;88.00
17423;DHT22;8829;47.932;7.810;2022-07-05T14:22:39;26.50;87.70
17423;DHT22;8829;47.932;7.810;2022-07-05T14:25:06;26.40;87.20
17423;DHT22;8829;47.932;7.810;2022-07-05T14:27:33;26.30;88.50
17423;DHT22;8829;47.932;7.810;2022-07-05T14:30:01;26.60;87.90
17423;DHT22;8829;47.932;7.810;2022-07-05T14:32:29;26.50;86.00
17423;DHT22;8829;47.932;7.810;2022-07-05T14:34:55;26.50;85.10
17423;DHT22;8829;47.932;7.810;2022-07-05T14:37:22;26.50;85.00
17423;DHT22;8829;47.932;7.810;2022-07-05T14:39:49;26.50;85.30
17423;DHT22;8829;47.932;7.810;2022-07-05T14:42:16;26.60;84.70
17423;DHT22;8829;47.932;7.810;2022-07-05T14:44:43;26.50;87.60
17423;DHT22;8829;47.932;7.810;2022-07-05T14:47:11;26.60;85.30
17423;DHT22;8829;47.932;7.810;2022-07-05T14:49:38;26.60;85.60
17423;DHT22;8829;47.932;7.810;2022-07-05T14:52:06;26.60;82.20
17423;DHT22;8829;47.932;7.810;2022-07-05T14:54:33;26.50;83.10
17423;DHT22;8829;47.932;7.810;2022-07-05T14:56:59;26.50;83.60
17423;DHT22;8829;47.932;7.810;2022-07-05T14:59:26;26.40;83.90
17423;DHT22;8829;47.932;7.810;2022-07-05T15:01:53;26.30;83.60
17423;DHT22;8829;47.932;7.810;2022-07-05T15:04:21;26.20;84.50
17423;DHT22;8829;47.932;7.810;2022-07-05T15:06:48;26.20;85.60
17423;DHT22;8829;47.932;7.810;2022-07-05T15:09:15;26.30;85.20
17423;DHT22;8829;47.932;7.810;2022-07-05T15:11:42;26.40;85.50
17423;DHT22;8829;47.932;7.810;2022-07-05T15:14:09;26.40;84.00
17423;DHT22;8829;47.932;7.810;2022-07-05T15:16:36;26.50;84.20
17423;DHT22;8829;47.932;7.810;2022-07-05T15:19:02;26.40;83.60
17423;DHT22;8829;47.932;7.810;2022-07-05T15:21:31;26.40;85.10
17423;DHT22;8829;47.932;7.810;2022-07-05T15:23:57;26.40;85.40
17423;DHT22;8829;47.932;7.810;2022-07-05T15:26:24;26.40;85.00
17423;DHT22;8829;47.932;7.810;2022-07-05T15:28:56;26.50;85.60
17423;DHT22;8829;47.932;7.810;2022-07-05T15:31:29;26.50;85.20
17423;DHT22;8829;47.932;7.810;2022-07-05T15:33:56;26.50;85.40
17423;DHT22;8829;47.932;7.810;2022-07-05T15:36:23;26.60;87.40
17423;DHT22;8829;47.932;7.810;2022-07-05T15:38:52;26.60;85.50
17423;DHT22;8829;47.932;7.810;2022-07-05T15:41:19;26.50;87.80
17423;DHT22;8829;47.932;7.810;2022-07-05T15:43:47;26.60;87.10
17423;DHT22;8829;47.932;7.810;2022-07-05T15:46:13;26.60;86.80
17423;DHT22;8829;47.932;7.810;2022-07-05T15:48:41;26.60;86.40
17423;DHT22;8829;47.932;7.810;2022-07-05T15:51:08;26.60;85.60
17423;DHT22;8829;47.932;7.810;2022-07-05T15:53:36;26.50;86.90
17423;DHT22;8829;47.932;7.810;2022-07-05T15:56:05;26.50;88.20